createdAt,value
2019-05-15T00:01:19.215Z,89.50
2019-05-15T00:03:51.112Z,89.50
2019-05-15T00:06:22.718Z,89.50
2019-05-15T00:08:54.105Z,89.50
2019-05-15T00:11:25.416Z,89.50
2019-05-15T00:13:58.934Z,89.60
2019-05-15T00:16:30.615Z,89.60
2019-05-15T00:19:01.937Z,89.50
2019-05-15T00:21:33.146Z,89.50
2019-05-15T00:24:04.655Z,89.60
2019-05-15T00:26:38.478Z,89.60
2019-05-15T00:29:15.829Z,89.50
2019-05-15T00:31:43.013Z,89.50
2019-05-15T00:34:14.728Z,89.40
2019-05-15T00:36:48.721Z,89.50
2019-05-15T00:39:19.574Z,89.50
2019-05-15T00:41:54.616Z,89.50
2019-05-15T00:44:24.930Z,89.60
2019-05-15T00:46:58.272Z,89.60
2019-05-15T00:49:29.551Z,89.60
2019-05-15T00:52:01.213Z,89.50
2019-05-15T00:54:32.485Z,89.50
2019-05-15T00:57:04.010Z,89.60
2019-05-15T00:59:35.336Z,89.50
2019-05-15T01:02:08.715Z,89.60
2019-05-15T01:04:40.110Z,89.50
2019-05-15T01:07:11.347Z,89.50
2019-05-15T01:09:42.915Z,89.50
2019-05-15T01:12:14.267Z,90.00
2019-05-15T01:14:45.805Z,89.50
2019-05-15T01:17:18.453Z,89.60
2019-05-15T01:19:49.963Z,89.50
2019-05-15T01:22:22.753Z,89.40
2019-05-15T01:24:54.087Z,89.40
2019-05-15T01:27:25.673Z,89.30
2019-05-15T01:29:58.151Z,89.30
2019-05-15T01:32:29.810Z,89.20
2019-05-15T01:35:01.185Z,89.30
2019-05-15T01:37:32.543Z,89.10
2019-05-15T01:40:04.345Z,89.10
2019-05-15T01:42:38.363Z,89.10
2019-05-15T01:45:09.761Z,89.10
2019-05-15T01:47:41.301Z,89.60
2019-05-15T01:50:12.962Z,89.00
2019-05-15T01:52:44.253Z,89.00
2019-05-15T01:55:18.160Z,89.60
2019-05-15T01:57:49.892Z,88.90
2019-05-15T02:00:22.450Z,89.00
2019-05-15T02:02:53.686Z,89.00
2019-05-15T02:05:28.216Z,89.00
2019-05-15T02:07:59.488Z,89.10
2019-05-15T02:10:30.865Z,89.00
2019-05-15T02:13:02.305Z,89.10
2019-05-15T02:15:33.568Z,89.10
2019-05-15T02:18:05.049Z,89.10
2019-05-15T02:20:38.787Z,89.30
2019-05-15T02:23:11.702Z,89.40
2019-05-15T02:25:42.990Z,89.60
2019-05-15T02:28:14.646Z,89.70
2019-05-15T02:30:45.910Z,89.80
2019-05-15T02:33:18.958Z,89.80
2019-05-15T02:35:50.686Z,89.90
2019-05-15T02:38:22.116Z,89.90
2019-05-15T02:40:53.724Z,90.00
2019-05-15T02:43:25.216Z,90.00
2019-05-15T02:45:56.529Z,90.00
2019-05-15T02:48:28.947Z,90.10
2019-05-15T02:51:00.652Z,90.00
2019-05-15T02:53:32.298Z,90.00
2019-05-15T02:56:03.590Z,90.00
2019-05-15T02:58:35.027Z,90.10
2019-05-15T03:01:09.343Z,90.10
2019-05-15T03:03:40.048Z,90.10
2019-05-15T03:06:11.626Z,90.10
2019-05-15T03:08:43.241Z,90.10
2019-05-15T03:11:14.807Z,90.10
2019-05-15T03:13:50.399Z,90.10
2019-05-15T03:16:20.686Z,90.10
2019-05-15T03:18:55.772Z,90.10
2019-05-15T03:21:25.514Z,90.10
2019-05-15T03:23:59.452Z,90.10
2019-05-15T03:26:30.687Z,90.10
2019-05-15T03:29:02.237Z,90.20
2019-05-15T03:31:48.782Z,90.10
2019-05-15T03:34:19.948Z,90.20
2019-05-15T03:36:45.235Z,90.10
2019-05-15T03:39:13.530Z,90.40
2019-05-15T03:41:45.110Z,90.20
2019-05-15T03:44:39.048Z,90.20
2019-05-15T03:47:09.405Z,90.10
2019-05-15T03:49:41.382Z,90.10
2019-05-15T03:52:12.681Z,90.10
2019-05-15T03:54:44.330Z,90.10
2019-05-15T03:57:20.087Z,90.10
2019-05-15T03:59:49.133Z,90.10
2019-05-15T04:02:20.580Z,90.10
2019-05-15T04:04:52.031Z,90.10
2019-05-15T04:07:23.434Z,90.10
2019-05-15T04:09:54.823Z,90.00
2019-05-15T04:12:29.002Z,90.10
2019-05-15T04:14:59.809Z,90.00
2019-05-15T04:17:31.122Z,90.10
2019-05-15T04:20:04.223Z,90.10
2019-05-15T04:22:35.623Z,90.20
2019-05-15T04:25:09.761Z,90.10
2019-05-15T04:27:41.494Z,90.10
2019-05-15T04:30:14.140Z,90.10
2019-05-15T04:32:48.564Z,90.10
2019-05-15T04:35:19.773Z,90.20
2019-05-15T04:37:51.467Z,89.90
2019-05-15T04:40:22.721Z,90.20
2019-05-15T04:42:54.119Z,90.10
2019-05-15T04:45:25.841Z,90.20
2019-05-15T04:47:58.770Z,90.10
2019-05-15T04:50:30.104Z,90.20
2019-05-15T04:53:01.496Z,90.20
2019-05-15T04:55:33.538Z,90.20
2019-05-15T04:58:05.286Z,90.20
2019-05-15T05:00:49.561Z,90.20
2019-05-15T05:03:21.301Z,90.20
2019-05-15T05:05:52.654Z,90.20
2019-05-15T05:08:23.901Z,90.20
2019-05-15T05:10:58.830Z,90.20
2019-05-15T05:13:29.235Z,90.30
2019-05-15T05:16:00.965Z,90.30
2019-05-15T05:18:32.517Z,90.30
2019-05-15T05:21:03.978Z,90.30
2019-05-15T05:23:37.603Z,90.40
2019-05-15T05:26:11.073Z,90.40
2019-05-15T05:28:42.156Z,90.40
2019-05-15T05:31:14.264Z,90.40
2019-05-15T05:33:45.829Z,90.40
2019-05-15T05:36:18.567Z,90.40
2019-05-15T05:38:50.013Z,90.40
2019-05-15T05:41:21.464Z,90.40
2019-05-15T05:43:52.825Z,90.40
2019-05-15T05:46:24.398Z,90.40
2019-05-15T05:48:55.565Z,90.40
2019-05-15T05:51:28.146Z,90.40
2019-05-15T05:53:59.958Z,90.40
2019-05-15T05:56:31.646Z,90.40
2019-05-15T05:59:03.356Z,90.40
2019-05-15T06:01:38.186Z,90.40
2019-05-15T06:04:08.480Z,90.50
2019-05-15T06:06:39.937Z,90.40
2019-05-15T06:09:11.315Z,90.40
2019-05-15T06:11:42.627Z,90.40
2019-05-15T06:14:13.899Z,90.40
2019-05-15T06:16:47.985Z,90.40
2019-05-15T06:19:19.102Z,90.40
2019-05-15T06:21:56.802Z,90.40
2019-05-15T06:24:24.542Z,90.30
2019-05-15T06:26:56.114Z,90.30
2019-05-15T06:29:28.300Z,90.20
2019-05-15T06:32:00.077Z,90.20
2019-05-15T06:34:31.828Z,90.10
2019-05-15T06:37:03.336Z,90.00
2019-05-15T06:39:35.966Z,90.00
2019-05-15T06:42:08.807Z,89.80
2019-05-15T06:44:40.805Z,89.60
2019-05-15T06:47:12.266Z,89.50
2019-05-15T06:49:43.763Z,89.40
2019-05-15T06:52:15.359Z,89.40
2019-05-15T06:54:48.555Z,89.40
2019-05-15T06:57:20.034Z,89.30
2019-05-15T06:59:51.594Z,89.30
2019-05-15T07:02:22.982Z,89.00
2019-05-15T07:04:54.376Z,89.00
2019-05-15T07:07:25.862Z,89.50
2019-05-15T07:09:58.149Z,89.00
2019-05-15T07:12:29.685Z,88.90
2019-05-15T07:15:01.199Z,88.90
2019-05-15T07:17:32.706Z,88.60
2019-05-15T07:20:08.530Z,88.40
2019-05-15T07:22:39.486Z,88.50
2019-05-15T07:25:11.096Z,88.20
2019-05-15T07:27:42.704Z,87.70
2019-05-15T07:30:14.321Z,87.40
2019-05-15T07:32:48.755Z,87.70
2019-05-15T07:35:19.939Z,87.90
2019-05-15T07:37:51.391Z,87.70
2019-05-15T07:40:23.192Z,87.70
2019-05-15T07:42:54.643Z,87.70
2019-05-15T07:45:28.298Z,87.30
2019-05-15T07:47:59.933Z,87.20
2019-05-15T07:50:31.372Z,87.30
2019-05-15T07:53:03.134Z,87.20
2019-05-15T07:55:34.631Z,87.20
2019-05-15T07:58:08.474Z,87.10
2019-05-15T08:00:39.695Z,87.10
2019-05-15T08:03:11.315Z,87.10
2019-05-15T08:05:54.972Z,87.00
2019-05-15T08:08:18.347Z,86.90
2019-05-15T08:10:49.753Z,86.70
2019-05-15T08:13:21.137Z,86.70
2019-05-15T08:15:52.695Z,86.90
2019-05-15T08:18:24.038Z,86.80
2019-05-15T08:20:58.379Z,86.80
2019-05-15T08:23:28.894Z,86.90
2019-05-15T08:26:00.289Z,86.60
2019-05-15T08:28:31.809Z,86.70
2019-05-15T08:31:06.419Z,86.60
2019-05-15T08:33:38.702Z,86.50
2019-05-15T08:36:09.644Z,86.70
2019-05-15T08:38:41.102Z,86.80
2019-05-15T08:41:15.458Z,86.70
2019-05-15T08:43:45.643Z,86.30
2019-05-15T08:46:18.649Z,86.00
2019-05-15T08:48:51.550Z,85.80
2019-05-15T08:51:22.955Z,85.80
2019-05-15T08:53:54.552Z,86.00
2019-05-15T08:56:28.694Z,86.00
2019-05-15T08:58:59.318Z,86.10
2019-05-15T09:01:31.077Z,85.90
2019-05-15T09:04:02.653Z,85.70
2019-05-15T09:06:33.966Z,85.60
2019-05-15T09:09:09.340Z,85.50
2019-05-15T09:11:39.634Z,85.50
2019-05-15T09:14:11.107Z,85.50
2019-05-15T09:16:42.670Z,86.20
2019-05-15T09:19:14.205Z,85.40
2019-05-15T09:21:45.468Z,85.40
2019-05-15T09:24:19.663Z,85.30
2019-05-15T09:26:49.991Z,85.10
2019-05-15T09:29:21.435Z,84.90
2019-05-15T09:31:52.934Z,84.90
2019-05-15T09:34:24.196Z,84.40
2019-05-15T09:36:59.768Z,84.50
2019-05-15T09:39:30.070Z,84.40
2019-05-15T09:42:01.868Z,84.20
2019-05-15T09:44:33.332Z,84.20
2019-05-15T09:47:04.819Z,84.20
2019-05-15T09:49:38.943Z,84.00
2019-05-15T09:52:09.729Z,83.80
2019-05-15T09:54:41.236Z,83.70
2019-05-15T09:57:12.853Z,83.50
2019-05-15T09:59:44.224Z,83.20
2019-05-15T10:02:15.494Z,83.30
2019-05-15T10:04:49.615Z,83.60
2019-05-15T10:07:20.345Z,83.50
2019-05-15T10:09:52.419Z,83.50
2019-05-15T10:12:24.432Z,83.60
2019-05-15T10:14:59.046Z,83.70
2019-05-15T10:17:30.372Z,83.60
2019-05-15T10:20:02.750Z,83.70
2019-05-15T10:22:34.336Z,83.80
2019-05-15T10:25:08.365Z,83.60
2019-05-15T10:27:40.033Z,83.20
2019-05-15T10:30:11.549Z,82.90
2019-05-15T10:32:43.797Z,82.50
2019-05-15T10:35:25.525Z,82.60
2019-05-15T10:37:48.999Z,82.80
2019-05-15T10:40:20.675Z,83.20
2019-05-15T10:42:52.119Z,83.30
2019-05-15T10:45:23.756Z,83.20
2019-05-15T10:47:55.137Z,83.10
2019-05-15T10:50:28.394Z,83.60
2019-05-15T10:52:59.802Z,83.90
2019-05-15T10:55:31.067Z,84.10
2019-05-15T10:58:02.400Z,84.10
2019-05-15T11:00:34.072Z,84.40
2019-05-15T11:03:05.375Z,84.60
2019-05-15T11:05:45.168Z,84.60
2019-05-15T11:08:09.929Z,84.50
2019-05-15T11:10:42.527Z,84.50
2019-05-15T11:13:13.977Z,84.70
2019-05-15T11:15:45.477Z,84.70
2019-05-15T11:18:16.861Z,84.80
2019-05-15T11:20:48.936Z,84.80
2019-05-15T11:23:20.749Z,84.80
2019-05-15T11:25:52.062Z,85.00
2019-05-15T11:28:23.540Z,85.10
2019-05-15T11:30:54.902Z,85.00
2019-05-15T11:33:29.017Z,85.10
2019-05-15T11:36:05.511Z,85.30
2019-05-15T11:38:33.135Z,85.20
2019-05-15T11:41:04.817Z,85.20
2019-05-15T11:43:38.617Z,85.40
2019-05-15T11:46:10.086Z,85.40
2019-05-15T11:48:41.634Z,85.40
2019-05-15T11:51:13.420Z,85.50
2019-05-15T11:53:44.870Z,85.60
2019-05-15T11:56:18.682Z,85.80
2019-05-15T11:58:49.433Z,85.80
2019-05-15T12:01:20.737Z,85.80
2019-05-15T12:03:52.296Z,85.80
2019-05-15T12:06:23.630Z,85.80
2019-05-15T12:08:55.197Z,86.10
2019-05-15T12:11:33.360Z,86.10
2019-05-15T12:13:59.765Z,86.10
2019-05-15T12:16:35.522Z,86.10
2019-05-15T12:19:16.935Z,86.30
2019-05-15T12:21:39.641Z,86.40
2019-05-15T12:24:11.652Z,86.50
2019-05-15T12:26:43.358Z,86.60
2019-05-15T12:29:15.349Z,86.70
2019-05-15T12:31:52.948Z,86.70
2019-05-15T12:34:24.390Z,86.90
2019-05-15T12:36:58.182Z,87.10
2019-05-15T12:39:30.546Z,86.90
2019-05-15T12:59:58.225Z,87.60
2019-05-15T13:02:29.887Z,87.70
2019-05-15T13:05:05.354Z,87.60
2019-05-15T13:07:37.952Z,87.50
2019-05-15T13:10:09.698Z,87.60
2019-05-15T13:12:55.580Z,87.60
2019-05-15T13:15:14.409Z,87.60
2019-05-15T13:17:45.807Z,87.70
2019-05-15T13:20:18.486Z,87.40
2019-05-15T13:25:23.313Z,87.30
2019-05-15T13:27:55.152Z,87.30
2019-05-15T13:30:26.643Z,87.40
2019-05-15T13:32:58.800Z,87.40
2019-05-15T13:35:30.767Z,87.40
2019-05-15T13:38:02.504Z,87.60
2019-05-15T13:40:37.862Z,87.60
2019-05-15T13:43:08.394Z,87.90
2019-05-15T13:45:41.442Z,87.90
2019-05-15T13:48:12.988Z,88.00
2019-05-15T13:50:44.324Z,88.10
2019-05-15T13:53:15.774Z,88.20
2019-05-15T13:55:48.405Z,88.50
2019-05-15T13:58:20.296Z,88.60
2019-05-15T14:00:52.156Z,88.60
2019-05-15T14:03:23.512Z,88.90
2019-05-15T14:05:54.856Z,88.90
2019-05-15T14:08:28.796Z,89.00
2019-05-15T14:10:59.763Z,89.00
2019-05-15T14:13:31.424Z,89.10
2019-05-15T14:16:02.961Z,89.00
2019-05-15T14:18:34.397Z,89.00
2019-05-15T14:21:05.961Z,89.00
2019-05-15T14:23:38.419Z,89.10
2019-05-15T14:26:17.794Z,89.20
2019-05-15T14:28:43.361Z,89.30
2019-05-15T14:31:14.821Z,89.30
2019-05-15T14:33:48.593Z,89.40
2019-05-15T14:36:19.663Z,89.40
2019-05-15T14:38:51.377Z,89.40
2019-05-15T14:41:22.682Z,89.40
2019-05-15T14:43:54.251Z,89.40
2019-05-15T14:46:25.838Z,89.50
2019-05-15T14:48:58.281Z,90.00
2019-05-15T14:51:29.638Z,89.60
2019-05-15T14:54:01.187Z,89.60
2019-05-15T14:56:32.934Z,89.80
2019-05-15T14:59:04.351Z,89.80
2019-05-15T15:01:38.248Z,90.00
2019-05-15T15:04:09.874Z,89.90
2019-05-15T15:06:41.329Z,90.00
2019-05-15T15:09:12.774Z,90.20
2019-05-15T15:11:44.353Z,90.00
2019-05-15T15:14:17.911Z,90.00
2019-05-15T15:16:49.121Z,90.10
2019-05-15T15:19:20.753Z,90.10
2019-05-15T15:21:52.346Z,90.10
2019-05-15T15:24:23.789Z,90.20
2019-05-15T15:26:55.617Z,90.20
2019-05-15T15:29:28.099Z,90.20
2019-05-15T15:31:59.512Z,90.20
2019-05-15T15:34:31.373Z,90.30
2019-05-15T15:37:03.019Z,90.30
2019-05-15T15:39:34.278Z,90.30
2019-05-15T15:42:05.539Z,90.40
2019-05-15T15:44:38.030Z,90.50
2019-05-15T15:47:10.042Z,90.50
2019-05-15T15:49:41.654Z,90.50
2019-05-15T15:52:12.972Z,90.50
2019-05-15T15:54:44.434Z,90.70
2019-05-15T15:57:16.044Z,90.50
2019-05-15T15:59:49.141Z,90.50
2019-05-15T16:02:20.535Z,90.60
2019-05-15T16:04:51.829Z,90.50
2019-05-15T16:07:23.305Z,90.60
2019-05-15T16:09:54.878Z,90.60
2019-05-15T16:12:27.787Z,90.60
2019-05-15T16:14:59.712Z,90.60
2019-05-15T16:17:30.927Z,90.70
2019-05-15T16:20:02.603Z,90.70
2019-05-15T16:22:34.173Z,90.80
2019-05-15T16:25:09.260Z,90.80
2019-05-15T16:27:39.665Z,90.80
2019-05-15T16:30:11.569Z,90.80
2019-05-15T16:32:43.291Z,90.90
2019-05-15T16:35:15.166Z,90.90
2019-05-15T16:37:49.025Z,90.80
2019-05-15T16:40:20.465Z,90.90
2019-05-15T16:42:51.724Z,90.90
2019-05-15T16:45:23.047Z,90.90
2019-05-15T16:47:54.754Z,90.90
2019-05-15T16:50:28.447Z,90.90
2019-05-15T16:52:59.787Z,90.90
2019-05-15T16:55:31.065Z,91.00
2019-05-15T16:58:02.225Z,91.00
2019-05-15T17:00:33.636Z,90.90
2019-05-15T17:03:10.154Z,91.00
2019-05-15T17:05:38.761Z,90.90
2019-05-15T17:08:10.612Z,90.90
2019-05-15T17:10:42.071Z,91.00
2019-05-15T17:13:13.621Z,91.00
2019-05-15T17:15:47.695Z,91.00
2019-05-15T17:18:19.341Z,91.00
2019-05-15T17:20:50.713Z,90.90
2019-05-15T17:23:22.086Z,91.20
2019-05-15T17:25:53.773Z,90.90
2019-05-15T17:28:25.529Z,90.90
2019-05-15T17:30:58.389Z,90.90
2019-05-15T17:33:29.862Z,90.90
2019-05-15T17:36:01.361Z,90.90
2019-05-15T17:38:32.957Z,90.90
2019-05-15T17:41:04.302Z,90.90
2019-05-15T17:43:37.813Z,90.90
2019-05-15T17:46:09.422Z,90.90
2019-05-15T17:48:41.360Z,91.00
2019-05-15T17:51:13.089Z,91.10
2019-05-15T17:53:44.665Z,91.00
2019-05-15T17:56:17.917Z,91.00
2019-05-15T17:58:49.329Z,91.00
2019-05-15T18:01:20.869Z,91.00
2019-05-15T18:03:52.153Z,91.00
2019-05-15T18:06:23.749Z,91.00
2019-05-15T18:08:55.462Z,91.10
2019-05-15T18:11:27.834Z,91.00
2019-05-15T18:14:00.309Z,91.10
2019-05-15T18:16:31.728Z,91.10
2019-05-15T18:19:03.400Z,91.10
2019-05-15T18:21:34.981Z,91.10
2019-05-15T18:24:09.150Z,91.10
2019-05-15T18:26:40.160Z,91.10
2019-05-15T18:29:11.501Z,91.10
2019-05-15T18:31:43.134Z,91.10
2019-05-15T18:34:14.829Z,91.10
2019-05-15T18:36:48.434Z,91.10
2019-05-15T18:39:19.554Z,91.10
2019-05-15T18:41:50.821Z,91.10
2019-05-15T18:44:22.033Z,91.10
2019-05-15T18:46:53.295Z,91.10
2019-05-15T18:49:24.502Z,91.10
2019-05-15T18:51:58.109Z,91.10
2019-05-15T18:54:29.393Z,91.10
2019-05-15T18:57:01.049Z,91.10
2019-05-15T18:59:32.565Z,91.10
2019-05-15T19:02:04.034Z,91.10
2019-05-15T19:04:35.337Z,91.10
2019-05-15T19:07:08.867Z,91.20
2019-05-15T19:09:40.156Z,91.20
2019-05-15T19:12:11.822Z,91.20
2019-05-15T19:14:43.480Z,91.20
2019-05-15T19:17:14.914Z,91.20
2019-05-15T19:19:48.201Z,91.20
2019-05-15T19:22:19.950Z,91.20
2019-05-15T19:24:51.202Z,91.20
2019-05-15T19:27:22.813Z,91.20
2019-05-15T19:29:54.618Z,91.20
2019-05-15T19:32:27.796Z,91.20
2019-05-15T19:34:59.084Z,91.20
2019-05-15T19:37:30.394Z,91.20
2019-05-15T19:40:04.367Z,91.30
2019-05-15T19:42:38.071Z,91.30
2019-05-15T19:45:09.460Z,91.30
2019-05-15T19:47:40.916Z,91.30
2019-05-15T19:50:13.149Z,91.30
2019-05-15T19:52:45.148Z,91.30
2019-05-15T19:55:17.704Z,91.30
2019-05-15T19:57:50.301Z,91.30
2019-05-15T20:00:21.572Z,91.30
2019-05-15T20:02:52.881Z,91.30
2019-05-15T20:05:24.506Z,91.30
2019-05-15T20:07:58.757Z,91.40
2019-05-15T20:10:30.476Z,91.40
2019-05-15T20:13:01.957Z,91.30
2019-05-15T20:15:33.638Z,91.40
2019-05-15T20:18:05.203Z,91.40
2019-05-15T20:20:38.624Z,91.40
2019-05-15T20:23:10.533Z,91.30
2019-05-15T20:25:42.288Z,91.40
2019-05-15T20:28:13.685Z,91.30
2019-05-15T20:30:45.170Z,91.40
2019-05-15T20:33:18.219Z,91.40
2019-05-15T20:35:49.766Z,91.40
2019-05-15T20:38:21.304Z,91.40
2019-05-15T20:40:52.796Z,91.40
2019-05-15T20:43:24.135Z,91.40
2019-05-15T20:45:57.620Z,91.30
2019-05-15T20:48:29.036Z,91.30
2019-05-15T20:51:01.347Z,91.30
2019-05-15T20:53:32.711Z,91.30
2019-05-15T20:56:04.289Z,91.30
2019-05-15T20:58:35.637Z,91.30
2019-05-15T21:01:09.177Z,91.30
2019-05-15T21:03:40.828Z,91.30
2019-05-15T21:06:13.293Z,91.20
2019-05-15T21:08:44.619Z,91.30
2019-05-15T21:11:18.069Z,91.30
2019-05-15T21:13:49.569Z,91.30
2019-05-15T21:16:21.057Z,91.30
2019-05-15T21:18:52.493Z,91.30
2019-05-15T21:21:24.025Z,91.30
2019-05-15T21:23:55.569Z,91.30
2019-05-15T21:26:27.135Z,91.30
2019-05-15T21:29:00.185Z,91.30
2019-05-15T21:31:31.518Z,91.30
2019-05-15T21:34:02.920Z,91.30
2019-05-15T21:36:34.257Z,91.30
2019-05-15T21:39:05.737Z,91.30
2019-05-15T21:41:38.708Z,91.30
2019-05-15T21:44:10.197Z,91.30
2019-05-15T21:46:41.634Z,91.30
2019-05-15T21:49:12.944Z,91.30
2019-05-15T21:51:44.624Z,91.30
2019-05-15T21:54:17.988Z,91.30
2019-05-15T21:56:50.509Z,91.30
2019-05-15T21:59:22.091Z,91.30
2019-05-15T22:01:53.552Z,91.30
2019-05-15T22:04:25.256Z,91.30
2019-05-15T22:06:58.397Z,91.30
2019-05-15T22:09:29.816Z,91.40
2019-05-15T22:12:01.426Z,91.30
2019-05-15T22:14:33.376Z,91.40
2019-05-15T22:17:04.964Z,91.60
2019-05-15T22:19:38.513Z,91.30
2019-05-15T22:22:09.509Z,91.30
2019-05-15T22:24:40.854Z,91.30
2019-05-15T22:27:12.534Z,91.30
2019-05-15T22:29:44.324Z,91.30
2019-05-15T22:32:15.791Z,91.30
2019-05-15T22:34:48.091Z,91.30
2019-05-15T22:37:21.731Z,91.30
2019-05-15T22:39:53.222Z,91.30
2019-05-15T22:42:24.801Z,91.30
2019-05-15T22:44:56.145Z,91.30
2019-05-15T22:47:28.516Z,91.40
2019-05-15T22:50:00.107Z,91.40
2019-05-15T22:52:31.709Z,91.40
2019-05-15T22:55:03.993Z,91.40
2019-05-15T22:57:35.588Z,91.70
2019-05-15T23:00:08.626Z,91.30
2019-05-15T23:02:41.072Z,91.30
2019-05-15T23:05:23.880Z,91.30
2019-05-15T23:07:48.017Z,91.30
2019-05-15T23:10:18.797Z,91.40
2019-05-15T23:12:50.590Z,91.40
2019-05-15T23:15:22.112Z,91.30
2019-05-15T23:17:53.779Z,91.30
2019-05-15T23:20:25.124Z,91.30
2019-05-15T23:22:58.416Z,91.30
2019-05-15T23:25:30.319Z,91.30
2019-05-15T23:28:02.031Z,91.30
2019-05-15T23:30:33.318Z,91.30
2019-05-15T23:33:04.791Z,91.30
2019-05-15T23:35:38.912Z,91.30
2019-05-15T23:38:09.471Z,91.30
2019-05-15T23:40:41.165Z,91.30
2019-05-15T23:43:13.725Z,91.30
2019-05-15T23:45:45.121Z,91.30
2019-05-15T23:48:16.750Z,91.30
2019-05-15T23:50:48.724Z,91.30
2019-05-15T23:53:20.077Z,91.30
2019-05-15T23:55:51.587Z,91.30
2019-05-15T23:58:22.858Z,91.30
